Richmond South's Hourly Summary for Wednesday, July 11, 2018
Hour Temp
(f)
RH
(%)
Solar Rad.
(MJ/m2)
Rainfall
(in)
Wind
(mph)
7/11/2018 12:00 AM 76 91 0 0 0
7/11/2018 1:00 AM 75 93 0 0 0
7/11/2018 2:00 AM 74 94 0 0 0
7/11/2018 3:00 AM 74 95 0 0 0
7/11/2018 4:00 AM 73 95 0 0 0
7/11/2018 5:00 AM 73 96 0 0 0
7/11/2018 6:00 AM 72 96 0 0 0
7/11/2018 7:00 AM 72 97 0.01 0 0
7/11/2018 8:00 AM 73 97 0.31 0 0
7/11/2018 9:00 AM 78 86 0.7 0 0
7/11/2018 10:00 AM 83 72 1.41 0 2.83
7/11/2018 11:00 AM 85 60 2.77 0 3.86
7/11/2018 12:00 PM 87 54 3.04 0 3.63
7/11/2018 1:00 PM 88 49 2.96 0 3.02
7/11/2018 2:00 PM 90 48 3.38 0 3.31
7/11/2018 3:00 PM 91 47 3.25 0 3.18
7/11/2018 4:00 PM 92 44 2.95 0 2.27
7/11/2018 5:00 PM 93 45 2.46 0 2.53
7/11/2018 6:00 PM 92 47 1.97 0 3.52
7/11/2018 7:00 PM 88 63 1.17 0 7.11
7/11/2018 8:00 PM 86 66 0.45 0 5.76
7/11/2018 9:00 PM 82 74 0.04 0 3.57
7/11/2018 10:00 PM 80 84 0 0 1.94
7/11/2018 11:00 PM 78 86 0 0 1.47
Data Summary 81 74 26.87 0.00 2.00